»·PEaware :: UAL1725 KSFO-PHOG

UAL1725 :: KSFO-PHOG

FLIGHT INFORMATION

Flight Status: Arrived
Operator:
United Airlines
More flights by this operator :: More flights under this callsign
Pilot: Thomas C. (28508)
Aircraft: BOEING 777-200
(B772)
More flights by this aircraft type
Origin: KSFO San Francisco Intl
United States
Destination: PHOG Kahului
United States
More flights between these airports :: More routes between these airports
Route: +GNNRR2 ALANN GITLE DIALO R576 DENNS LAVAS1
File this flight plan on PilotEdge
Remarks: PBN / A1B1C1D1L1O1S2 NAV / RNVD1E2A1 DOF / 200329 REG / N795UA EET / KZAK0031 PHZH0418 SEL / ASFG OPR / UAL PER / D RALT / KSFO PHTO RMK / TCAS
Altitude:
(Current/Filed)
40,000ft
Speed:
(Current/Filed)
486kts
Departed: 29-Mar-20 09:32 AM
Arrived: 29-Mar-20 02:28 PM
Distance/Time
Traveled:
2029nm/4:56
Distance/Time
To Go:
Arrived

Flight Plot

Page will automatically refresh every two minutes.

Flight plan parsing failed; only flown route is shown


Map Options




Map Legend


Flown Route
Filed Route
Departure Airport
Arrival Airport
Navaid (VOR, NDB)
Fix

Horizontal Profiles

Position Reports

Time Latitude Longitude Heading Altitude Ground
Speed
29-Mar-20 08:55 37.621144 -122.390806 118 26ft 0kts
29-Mar-20 08:56 37.621144 -122.390806 118 26ft 0kts
29-Mar-20 08:57 37.621144 -122.390806 118 26ft 0kts
29-Mar-20 08:58 37.621144 -122.390806 118 26ft 0kts
29-Mar-20 08:59 37.621144 -122.390806 118 26ft 0kts
29-Mar-20 09:00 37.621144 -122.390806 118 26ft 0kts
29-Mar-20 09:01 37.621144 -122.390806 118 26ft 0kts
29-Mar-20 09:02 37.621144 -122.390806 118 26ft 0kts
29-Mar-20 09:03 37.621144 -122.390806 118 26ft 0kts
29-Mar-20 09:04 37.621144 -122.390806 118 26ft 0kts
29-Mar-20 09:05 37.621144 -122.390806 118 26ft 0kts
29-Mar-20 09:06 37.621144 -122.390806 118 26ft 0kts
29-Mar-20 09:07 37.621144 -122.390806 118 26ft 0kts
29-Mar-20 09:08 37.621144 -122.390806 118 26ft 0kts
29-Mar-20 09:09 37.621144 -122.390806 118 26ft 0kts
29-Mar-20 09:10 37.621144 -122.390806 118 26ft 0kts
29-Mar-20 09:11 37.621144 -122.390806 118 26ft 0kts
29-Mar-20 09:12 37.621144 -122.390806 118 26ft 0kts
29-Mar-20 09:13 37.621144 -122.390806 118 26ft 0kts
29-Mar-20 09:14 37.621144 -122.390806 118 26ft 0kts
29-Mar-20 09:15 37.621144 -122.390806 118 26ft 0kts
29-Mar-20 09:16 37.621144 -122.390806 118 26ft 0kts
29-Mar-20 09:17 37.621144 -122.390806 118 26ft 0kts
29-Mar-20 09:18 37.621144 -122.390806 118 26ft 0kts
29-Mar-20 09:19 37.621144 -122.390806 118 26ft 0kts
29-Mar-20 09:20 37.621144 -122.390806 118 26ft 0kts
29-Mar-20 09:21 37.621278 -122.391127 118 26ft 2kts
29-Mar-20 09:22 37.621259 -122.391715 28 26ft 0kts
29-Mar-20 09:23 37.621223 -122.391739 26 26ft 0kts
29-Mar-20 09:24 37.621261 -122.391715 26 26ft 0kts
29-Mar-20 09:25 37.622455 -122.390279 74 26ft 12kts
29-Mar-20 09:26 37.621292 -122.385919 118 26ft 16kts
29-Mar-20 09:27 37.618868 -122.380142 117 26ft 20kts
29-Mar-20 09:28 37.616247 -122.372884 117 26ft 24kts
29-Mar-20 09:29 37.613080 -122.366436 118 26ft 21kts
29-Mar-20 09:30 37.610478 -122.359977 90 26ft 12kts
29-Mar-20 09:31 37.614073 -122.363985 298 26ft 96kts
29-Mar-20 09:32 37.637983 -122.419240 298 1848ft 233kts
29-Mar-20 09:33 37.666379 -122.502562 262 5760ft 267kts
29-Mar-20 09:34 37.628066 -122.584062 236 9763ft 278kts
29-Mar-20 09:35 37.573983 -122.678501 235 11883ft 366kts
29-Mar-20 09:36 37.512321 -122.784923 237 16027ft 383kts
29-Mar-20 09:37 37.448177 -122.895553 237 19543ft 401kts
29-Mar-20 09:38 37.379896 -123.012852 237 22745ft 416kts
29-Mar-20 09:39 37.309782 -123.132874 237 25604ft 431kts
29-Mar-20 09:40 37.236380 -123.258060 238 28162ft 445kts
29-Mar-20 09:41 37.161658 -123.385010 238 30403ft 458kts
29-Mar-20 09:43 37.085081 -123.514549 238 32721ft 466kts
29-Mar-20 09:44 37.009503 -123.641973 239 35943ft 447kts
29-Mar-20 09:45 36.935579 -123.766212 238 37957ft 447kts
29-Mar-20 09:46 36.861252 -123.890616 238 39593ft 447kts
29-Mar-20 09:47 36.787319 -124.013873 238 40158ft 444kts
29-Mar-20 09:48 36.713354 -124.136739 238 40154ft 445kts
29-Mar-20 09:49 36.639177 -124.259522 238 40152ft 444kts
29-Mar-20 09:50 36.564662 -124.382421 238 40151ft 444kts
29-Mar-20 09:51 36.490505 -124.504288 238 40150ft 444kts
29-Mar-20 09:52 36.415801 -124.626614 239 40148ft 443kts
29-Mar-20 09:53 36.341116 -124.748467 238 40160ft 443kts
29-Mar-20 09:54 36.266247 -124.870192 238 40159ft 443kts
29-Mar-20 09:55 36.191630 -124.991074 238 40158ft 443kts
29-Mar-20 09:56 36.116647 -125.112126 238 40156ft 442kts
29-Mar-20 09:57 36.041994 -125.232218 238 40155ft 442kts
29-Mar-20 09:58 35.966988 -125.352455 238 40153ft 442kts
29-Mar-20 09:59 35.891990 -125.472261 238 40150ft 441kts
29-Mar-20 10:00 35.816910 -125.591770 238 40146ft 441kts
29-Mar-20 10:00 35.754428 -125.690913 238 40161ft 442kts
29-Mar-20 10:02 35.666409 -125.830113 238 40158ft 441kts
29-Mar-20 10:03 35.592216 -125.949149 244 40180ft 436kts
29-Mar-20 10:03 35.543684 -126.057286 246 40182ft 433kts
29-Mar-20 10:04 35.485201 -126.186385 246 40181ft 433kts
29-Mar-20 10:06 35.416746 -126.336818 246 40179ft 433kts
29-Mar-20 10:06 35.367979 -126.443580 246 40177ft 433kts
29-Mar-20 10:07 35.308987 -126.572280 246 40176ft 433kts
29-Mar-20 10:08 35.250130 -126.700191 246 40190ft 433kts
29-Mar-20 10:09 35.190839 -126.828583 246 40187ft 433kts
29-Mar-20 10:10 35.131628 -126.956319 246 40185ft 433kts
29-Mar-20 10:11 35.072214 -127.084019 246 40184ft 433kts
29-Mar-20 10:12 35.012744 -127.211365 245 40182ft 433kts
29-Mar-20 10:13 34.953141 -127.338529 245 40180ft 432kts
29-Mar-20 10:14 34.893468 -127.465375 245 40176ft 432kts
29-Mar-20 10:15 34.833613 -127.592128 245 40173ft 432kts
29-Mar-20 10:16 34.773523 -127.718930 245 40186ft 432kts
29-Mar-20 10:17 34.713572 -127.844980 245 40185ft 431kts
29-Mar-20 10:18 34.653433 -127.970965 245 40183ft 431kts
29-Mar-20 10:19 34.593019 -128.097071 245 40181ft 431kts
29-Mar-20 10:20 34.532871 -128.222173 245 40180ft 430kts
29-Mar-20 10:21 34.472479 -128.347336 245 40178ft 430kts
29-Mar-20 10:22 34.411990 -128.472255 244 40176ft 430kts
29-Mar-20 10:23 34.351208 -128.597335 244 40174ft 429kts
29-Mar-20 10:24 34.291049 -128.720692 244 40187ft 430kts
29-Mar-20 10:25 34.230317 -128.844796 244 40186ft 429kts
29-Mar-20 10:26 34.169525 -128.968589 244 40184ft 429kts
29-Mar-20 10:27 34.108519 -129.092386 244 40182ft 428kts
29-Mar-20 10:28 34.047680 -129.215417 244 40181ft 428kts
29-Mar-20 10:29 33.986534 -129.338643 244 40179ft 428kts
29-Mar-20 10:30 33.925404 -129.461414 243 40177ft 427kts
29-Mar-20 10:31 33.864212 -129.583879 243 40174ft 427kts
29-Mar-20 10:32 33.802817 -129.706336 243 40187ft 427kts
29-Mar-20 10:33 33.741278 -129.828675 243 40186ft 427kts
29-Mar-20 10:34 33.679922 -129.950231 243 40184ft 426kts
29-Mar-20 10:35 33.618455 -130.071602 243 40182ft 426kts
29-Mar-20 10:36 33.556537 -130.193452 243 40180ft 427kts
29-Mar-20 10:37 33.494674 -130.314781 242 40178ft 427kts
29-Mar-20 10:38 33.432698 -130.435930 242 40177ft 427kts
29-Mar-20 10:39 33.370553 -130.557006 242 40175ft 428kts
29-Mar-20 10:40 33.308094 -130.678274 242 40190ft 428kts
29-Mar-20 10:41 33.245602 -130.799230 242 40186ft 428kts
29-Mar-20 10:42 33.183003 -130.919986 242 40184ft 429kts
29-Mar-20 10:43 33.119991 -131.041136 241 40182ft 429kts
29-Mar-20 10:44 33.057096 -131.161666 241 40180ft 429kts
29-Mar-20 10:45 32.993791 -131.282586 241 40179ft 430kts
29-Mar-20 10:46 32.930556 -131.402977 241 40177ft 430kts
29-Mar-20 10:47 32.867013 -131.523554 241 40176ft 430kts
29-Mar-20 10:48 32.803314 -131.644037 241 40175ft 431kts
29-Mar-20 10:49 32.739384 -131.764571 240 40187ft 431kts
29-Mar-20 10:50 32.675307 -131.884992 240 40185ft 431kts
29-Mar-20 10:51 32.611275 -132.004939 240 40183ft 432kts
29-Mar-20 10:52 32.546799 -132.125328 240 40182ft 432kts
29-Mar-20 10:53 32.482415 -132.245162 240 40180ft 432kts
29-Mar-20 10:54 32.417715 -132.365199 240 40178ft 433kts
29-Mar-20 10:55 32.352663 -132.485507 240 40177ft 433kts
29-Mar-20 10:56 32.287665 -132.605331 240 40175ft 434kts
29-Mar-20 10:57 32.222416 -132.725293 239 40186ft 436kts
29-Mar-20 10:58 32.157425 -132.845846 242 40183ft 435kts
29-Mar-20 10:59 32.097677 -132.970165 242 40182ft 436kts
29-Mar-20 11:00 32.037747 -133.093942 242 40181ft 436kts
29-Mar-20 11:01 31.977331 -133.218308 242 40179ft 437kts
29-Mar-20 11:02 31.916963 -133.342162 242 40177ft 437kts
29-Mar-20 11:03 31.856331 -133.466140 241 40179ft 438kts
29-Mar-20 11:04 31.795440 -133.590241 241 40178ft 438kts
29-Mar-20 11:05 31.734387 -133.714275 241 40187ft 439kts
29-Mar-20 11:06 31.673048 -133.838470 241 40186ft 439kts
29-Mar-20 11:07 31.611634 -133.962411 241 40184ft 440kts
29-Mar-20 11:08 31.549993 -134.086405 241 40182ft 440kts
29-Mar-20 11:09 31.488344 -134.210012 241 40181ft 441kts
29-Mar-20 11:10 31.426335 -134.333938 240 40180ft 441kts
29-Mar-20 11:11 31.364195 -134.457726 240 40178ft 442kts
29-Mar-20 11:12 31.301939 -134.581344 240 40177ft 442kts
29-Mar-20 11:13 31.239340 -134.705229 240 40185ft 443kts
29-Mar-20 11:14 31.176549 -134.829113 240 40184ft 443kts
29-Mar-20 11:15 31.113598 -134.952909 240 40182ft 444kts
29-Mar-20 11:16 31.050451 -135.076691 240 40181ft 444kts
29-Mar-20 11:17 30.987180 -135.200323 240 40179ft 445kts
29-Mar-20 11:18 30.923634 -135.324098 240 40178ft 445kts
29-Mar-20 11:19 30.860585 -135.446509 240 40180ft 445kts
29-Mar-20 11:20 30.796639 -135.570272 240 40179ft 445kts
29-Mar-20 11:21 30.732740 -135.693548 239 40188ft 446kts
29-Mar-20 11:22 30.668695 -135.816740 239 40185ft 446kts
29-Mar-20 11:23 30.604475 -135.939867 239 40184ft 446kts
29-Mar-20 11:24 30.540142 -136.062828 239 40183ft 446kts
29-Mar-20 11:25 30.475589 -136.185823 239 40181ft 446kts
29-Mar-20 11:26 30.410869 -136.308754 239 40180ft 447kts
29-Mar-20 11:27 30.346123 -136.431354 239 40179ft 447kts
29-Mar-20 11:28 30.281228 -136.553856 239 40178ft 447kts
29-Mar-20 11:29 30.216156 -136.676307 238 40185ft 448kts
29-Mar-20 11:30 30.150660 -136.799189 238 40183ft 448kts
29-Mar-20 11:31 30.085120 -136.921774 238 40182ft 448kts
29-Mar-20 11:32 30.019585 -137.043975 238 40181ft 449kts
29-Mar-20 11:33 29.953770 -137.166329 238 40180ft 449kts
29-Mar-20 11:34 29.887967 -137.288286 238 40182ft 449kts
29-Mar-20 11:35 29.821701 -137.410723 238 40181ft 450kts
29-Mar-20 11:36 29.755497 -137.532681 238 40180ft 450kts
29-Mar-20 11:37 29.689060 -137.654700 238 40180ft 450kts
29-Mar-20 11:38 29.622566 -137.776464 238 40185ft 450kts
29-Mar-20 11:39 29.555717 -137.898506 238 40184ft 451kts
29-Mar-20 11:40 29.488817 -138.020278 238 40183ft 451kts
29-Mar-20 11:41 29.421939 -138.141649 238 40182ft 451kts
29-Mar-20 11:42 29.354789 -138.263153 238 40181ft 451kts
29-Mar-20 11:43 29.287555 -138.384449 238 40179ft 452kts
29-Mar-20 11:44 29.220054 -138.505871 238 40178ft 452kts
29-Mar-20 11:45 29.152483 -138.627061 238 40177ft 452kts
29-Mar-20 11:46 29.085461 -138.746908 237 40183ft 452kts
29-Mar-20 11:47 29.017522 -138.868050 237 40182ft 452kts
29-Mar-20 11:48 28.949525 -138.988944 237 40181ft 452kts
29-Mar-20 11:49 28.881451 -139.109626 237 40185ft 453kts
29-Mar-20 11:50 28.813174 -139.230314 237 40183ft 453kts
29-Mar-20 11:51 28.744747 -139.350920 237 40182ft 453kts
29-Mar-20 11:52 28.683606 -139.475465 248 40188ft 453kts
29-Mar-20 11:53 28.635078 -139.608025 247 40180ft 453kts
29-Mar-20 11:55 28.586288 -139.740397 246 40185ft 454kts
29-Mar-20 11:56 28.537354 -139.872662 246 40184ft 454kts
29-Mar-20 11:57 28.488313 -140.004739 246 40183ft 454kts
29-Mar-20 11:58 28.439023 -140.137022 246 40182ft 454kts
29-Mar-20 11:59 28.389667 -140.269017 246 40181ft 454kts
29-Mar-20 12:00 28.340164 -140.400941 246 40180ft 454kts
29-Mar-20 12:01 28.282291 -140.554591 246 40098ft 455kts
29-Mar-20 12:02 28.240769 -140.664442 246 40101ft 455kts
29-Mar-20 12:03 28.165748 -140.862121 246 40102ft 455kts
29-Mar-20 12:06 28.040150 -141.190807 246 40099ft 455kts
29-Mar-20 12:07 27.989793 -141.321802 246 40098ft 455kts
29-Mar-20 12:08 27.939237 -141.452872 246 40097ft 455kts
29-Mar-20 12:09 27.888461 -141.584063 246 40100ft 455kts
29-Mar-20 12:10 27.837694 -141.714775 245 40105ft 455kts
29-Mar-20 12:11 27.786677 -141.845711 245 40104ft 455kts
29-Mar-20 12:11 27.744094 -141.954658 245 40103ft 455kts
29-Mar-20 12:13 27.684346 -142.107012 245 40102ft 456kts
29-Mar-20 12:13 27.641431 -142.216078 245 40101ft 456kts
29-Mar-20 12:15 27.581456 -142.368001 245 40100ft 456kts
29-Mar-20 12:16 27.529644 -142.498776 245 40099ft 456kts
29-Mar-20 12:16 27.486540 -142.607243 245 40098ft 456kts
29-Mar-20 12:18 27.425703 -142.759831 245 40103ft 456kts
29-Mar-20 12:18 27.382440 -142.867986 245 40103ft 456kts
29-Mar-20 12:19 27.330284 -142.997988 245 40101ft 456kts
29-Mar-20 12:20 27.278131 -143.127560 245 40100ft 456kts
29-Mar-20 12:21 27.225586 -143.257685 245 40099ft 456kts
29-Mar-20 12:22 27.173048 -143.387377 245 40098ft 457kts
29-Mar-20 12:23 27.120387 -143.516955 245 40097ft 457kts
29-Mar-20 12:24 27.067612 -143.646399 245 40096ft 457kts
29-Mar-20 12:25 27.014719 -143.775704 245 40102ft 457kts
29-Mar-20 12:26 26.961692 -143.904943 245 40101ft 457kts
29-Mar-20 12:27 26.908441 -144.034317 245 40100ft 457kts
29-Mar-20 12:28 26.855171 -144.163328 245 40102ft 457kts
29-Mar-20 12:29 26.801791 -144.292199 245 40101ft 457kts
29-Mar-20 12:30 26.748225 -144.421117 245 40100ft 458kts
29-Mar-20 12:31 26.694407 -144.550238 245 40099ft 458kts
29-Mar-20 12:32 26.640704 -144.678678 245 40105ft 458kts
29-Mar-20 12:33 26.586686 -144.807550 245 40104ft 461kts
29-Mar-20 12:34 26.532037 -144.937393 245 40102ft 461kts
29-Mar-20 12:35 26.477631 -145.066315 245 40102ft 461kts
29-Mar-20 12:36 26.422962 -145.195467 245 40101ft 461kts
29-Mar-20 12:37 26.368112 -145.324647 245 40100ft 461kts
29-Mar-20 12:38 26.313219 -145.453538 245 40099ft 461kts
29-Mar-20 12:39 26.258357 -145.581963 245 40098ft 460kts
29-Mar-20 12:40 26.203208 -145.710661 244 40103ft 460kts
29-Mar-20 12:41 26.148046 -145.839010 245 40103ft 460kts
29-Mar-20 12:42 26.092739 -145.967310 245 40102ft 460kts
29-Mar-20 12:43 26.037543 -146.094971 245 40101ft 460kts
29-Mar-20 12:44 25.981934 -146.223313 245 40100ft 459kts
29-Mar-20 12:45 25.926495 -146.351009 245 40099ft 459kts
29-Mar-20 12:46 25.870962 -146.478535 245 40099ft 459kts
29-Mar-20 12:47 25.815407 -146.605742 245 40098ft 459kts
29-Mar-20 12:48 25.759646 -146.733056 245 40104ft 459kts
29-Mar-20 12:49 25.703976 -146.859788 245 40103ft 458kts
29-Mar-20 12:50 25.648249 -146.986279 245 40102ft 458kts
29-Mar-20 12:51 25.592252 -147.113018 245 40101ft 458kts
29-Mar-20 12:52 25.536242 -147.239423 245 40100ft 457kts
29-Mar-20 12:53 25.480189 -147.365561 245 40099ft 457kts
29-Mar-20 12:54 25.424064 -147.491504 245 40098ft 457kts
29-Mar-20 12:55 25.367850 -147.617287 245 40097ft 456kts
29-Mar-20 12:56 25.311519 -147.742970 245 40104ft 456kts
29-Mar-20 12:57 25.255252 -147.868165 245 40103ft 456kts
29-Mar-20 12:58 25.199013 -147.992948 245 40102ft 455kts
29-Mar-20 12:59 25.142625 -148.117711 245 40101ft 455kts
29-Mar-20 13:00 25.086161 -148.242300 245 40100ft 454kts
29-Mar-20 13:01 25.029576 -148.366810 245 40099ft 454kts
29-Mar-20 13:02 24.973070 -148.490800 245 40098ft 453kts
29-Mar-20 13:03 24.916402 -148.614809 245 40097ft 453kts
29-Mar-20 13:04 24.860198 -148.737462 245 40104ft 452kts
29-Mar-20 13:05 24.803533 -148.860796 245 40103ft 451kts
29-Mar-20 13:06 24.746757 -148.984037 245 40102ft 451kts
29-Mar-20 13:07 24.689990 -149.106928 245 40101ft 450kts
29-Mar-20 13:08 24.633310 -149.229306 246 40099ft 449kts
29-Mar-20 13:09 24.576678 -149.351257 246 40098ft 449kts
29-Mar-20 13:10 24.519933 -149.473128 246 40097ft 448kts
29-Mar-20 13:11 24.463222 -149.594608 246 40095ft 447kts
29-Mar-20 13:12 24.406528 -149.715733 246 40105ft 447kts
29-Mar-20 13:13 24.349661 -149.836918 246 40104ft 446kts
29-Mar-20 13:14 24.292966 -149.957421 246 40103ft 445kts
29-Mar-20 13:15 24.236340 -150.077473 246 40102ft 444kts
29-Mar-20 13:16 24.179668 -150.197316 246 40101ft 443kts
29-Mar-20 13:17 24.122907 -150.317042 246 40099ft 442kts
29-Mar-20 13:18 24.066203 -150.436347 247 40098ft 441kts
29-Mar-20 13:19 24.009561 -150.555223 247 40096ft 441kts
29-Mar-20 13:20 23.952922 -150.673787 246 40109ft 440kts
29-Mar-20 13:21 23.896185 -150.792263 247 40106ft 439kts
29-Mar-20 13:22 23.839541 -150.910264 247 40102ft 438kts
29-Mar-20 13:23 23.783007 -151.027742 247 40101ft 437kts
29-Mar-20 13:24 23.726371 -151.145143 247 40099ft 437kts
29-Mar-20 13:25 23.669819 -151.262088 247 40097ft 436kts
29-Mar-20 13:26 23.613229 -151.378829 247 40096ft 435kts
29-Mar-20 13:27 23.556754 -151.495052 247 40094ft 434kts
29-Mar-20 13:28 23.500251 -151.611058 247 40092ft 433kts
29-Mar-20 13:29 23.443742 -151.726799 247 40107ft 433kts
29-Mar-20 13:30 23.387186 -151.842364 247 40105ft 432kts
29-Mar-20 13:31 23.330691 -151.957535 247 40104ft 431kts
29-Mar-20 13:32 23.274374 -152.072075 247 40102ft 430kts
29-Mar-20 13:33 23.218016 -152.186431 248 40100ft 430kts
29-Mar-20 13:34 23.161565 -152.300713 248 40099ft 429kts
29-Mar-20 13:35 23.105085 -152.414793 248 40097ft 428kts
29-Mar-20 13:36 23.048769 -152.528281 248 40095ft 427kts
29-Mar-20 13:37 22.992330 -152.641323 248 40093ft 427kts
29-Mar-20 13:38 22.935634 -152.754276 248 40110ft 426kts
29-Mar-20 13:39 22.878972 -152.866927 248 40102ft 425kts
29-Mar-20 13:40 22.822280 -152.979382 248 40101ft 425kts
29-Mar-20 13:41 22.765543 -153.091673 248 40099ft 424kts
29-Mar-20 13:42 22.709044 -153.203248 248 40097ft 423kts
29-Mar-20 13:43 22.652331 -153.315000 248 40095ft 423kts
29-Mar-20 13:44 22.595852 -153.426047 248 40093ft 422kts
29-Mar-20 13:45 22.539291 -153.537017 248 40091ft 421kts
29-Mar-20 13:46 22.482589 -153.648022 248 40089ft 420kts
29-Mar-20 13:47 22.426151 -153.758268 248 40108ft 420kts
29-Mar-20 13:48 22.369149 -153.868246 244 40104ft 423kts
29-Mar-20 13:49 22.286963 -153.963570 234 40104ft 437kts
29-Mar-20 13:50 22.201528 -154.056472 234 40103ft 436kts
29-Mar-20 13:51 22.116307 -154.148847 235 40102ft 435kts
29-Mar-20 13:52 22.030923 -154.241223 235 40100ft 434kts
29-Mar-20 13:53 21.945846 -154.333100 235 40099ft 433kts
29-Mar-20 13:54 21.860655 -154.424929 235 40090ft 432kts
29-Mar-20 13:55 21.775855 -154.516177 235 40088ft 431kts
29-Mar-20 13:56 21.691404 -154.606890 235 40086ft 430kts
29-Mar-20 13:57 21.606378 -154.698065 235 40108ft 430kts
29-Mar-20 13:58 21.521794 -154.788599 235 40107ft 429kts
29-Mar-20 13:59 21.437388 -154.878731 236 38837ft 424kts
29-Mar-20 14:00 21.355993 -154.965546 236 37042ft 404kts
29-Mar-20 14:01 21.278036 -155.048573 236 35305ft 385kts
29-Mar-20 14:02 21.203937 -155.127395 236 33610ft 370kts
29-Mar-20 14:04 21.129153 -155.206968 235 31946ft 387kts
29-Mar-20 14:05 21.051545 -155.289272 233 30184ft 400kts
29-Mar-20 14:06 20.971112 -155.374372 232 28280ft 412kts
29-Mar-20 14:07 20.887788 -155.462399 230 26302ft 419kts
29-Mar-20 14:08 20.803876 -155.550896 229 24291ft 412kts
29-Mar-20 14:09 20.723009 -155.635994 228 22391ft 404kts
29-Mar-20 14:10 20.642438 -155.720719 227 20541ft 396kts
29-Mar-20 14:11 20.564896 -155.802107 227 18698ft 374kts
29-Mar-20 14:12 20.494175 -155.877058 232 17156ft 355kts
29-Mar-20 14:13 20.475262 -155.974410 271 15575ft 338kts
29-Mar-20 14:14 20.478590 -156.075195 272 13805ft 324kts
29-Mar-20 14:15 20.481858 -156.166666 271 12280ft 285kts
29-Mar-20 14:16 20.484845 -156.252465 271 10956ft 284kts
29-Mar-20 14:17 20.487734 -156.336264 271 9818ft 276kts
29-Mar-20 14:18 20.497465 -156.419031 305 8513ft 269kts
29-Mar-20 14:19 20.547652 -156.462273 323 7947ft 199kts
29-Mar-20 14:20 20.593803 -156.497769 326 6304ft 201kts
29-Mar-20 14:21 20.646153 -156.510377 11 4990ft 189kts
29-Mar-20 14:22 20.698453 -156.502174 12 4137ft 179kts
29-Mar-20 14:22 20.742255 -156.496562 12 3313ft 179kts
29-Mar-20 14:23 20.794666 -156.488695 12 2261ft 178kts
29-Mar-20 14:25 20.840986 -156.472539 43 1294ft 135kts
29-Mar-20 14:26 20.871688 -156.449350 39 522ft 134kts
29-Mar-20 14:26 20.895807 -156.431371 37 72ft 94kts
29-Mar-20 14:27 20.904576 -156.425137 347 71ft 10kts
29-Mar-20 14:28 20.902187 -156.428226 214 71ft 19kts
29-Mar-20 14:29 20.897192 -156.431939 214 71ft 24kts
29-Mar-20 14:30 20.895340 -156.434689 304 71ft 3kts
29-Mar-20 14:31 20.895413 -156.434803 304 71ft 0kts
29-Mar-20 14:32 20.895413 -156.434803 304 71ft 0kts

Navigation Log

Ident Type
Flight plan parsing failed, navigation log unavailable